sensor_id;sensor_type;location;lat;lon;timestamp;temperature;humidity
16315;DHT22;8266;52.150;4.768;2024-02-26T00:00:28;9.10;99.90
16315;DHT22;8266;52.150;4.768;2024-02-26T00:02:56;9.10;99.90
16315;DHT22;8266;52.150;4.768;2024-02-26T00:05:23;9.10;99.90
16315;DHT22;8266;52.150;4.768;2024-02-26T00:07:51;9.00;99.90
16315;DHT22;8266;52.150;4.768;2024-02-26T00:10:18;9.00;99.90
16315;DHT22;8266;52.150;4.768;2024-02-26T00:12:46;9.00;99.90
16315;DHT22;8266;52.150;4.768;2024-02-26T00:15:12;9.00;99.90
16315;DHT22;8266;52.150;4.768;2024-02-26T00:17:39;9.00;99.90
16315;DHT22;8266;52.150;4.768;2024-02-26T00:20:13;9.00;99.90
16315;DHT22;8266;52.150;4.768;2024-02-26T00:22:40;9.00;99.90
16315;DHT22;8266;52.150;4.768;2024-02-26T00:25:09;9.00;99.90
16315;DHT22;8266;52.150;4.768;2024-02-26T00:27:38;9.00;99.90
16315;DHT22;8266;52.150;4.768;2024-02-26T00:30:08;9.00;99.90
16315;DHT22;8266;52.150;4.768;2024-02-26T00:32:35;9.00;99.90
16315;DHT22;8266;52.150;4.768;2024-02-26T00:35:03;8.90;99.90
16315;DHT22;8266;52.150;4.768;2024-02-26T00:37:30;8.90;99.90
16315;DHT22;8266;52.150;4.768;2024-02-26T00:39:59;8.90;99.90
16315;DHT22;8266;52.150;4.768;2024-02-26T00:42:28;8.90;99.90
16315;DHT22;8266;52.150;4.768;2024-02-26T00:44:55;8.90;99.90
16315;DHT22;8266;52.150;4.768;2024-02-26T00:47:22;8.90;99.90
16315;DHT22;8266;52.150;4.768;2024-02-26T00:49:49;8.90;99.90
16315;DHT22;8266;52.150;4.768;2024-02-26T00:52:16;8.90;99.90
16315;DHT22;8266;52.150;4.768;2024-02-26T00:54:43;8.90;99.90
16315;DHT22;8266;52.150;4.768;2024-02-26T00:57:10;8.90;99.90
16315;DHT22;8266;52.150;4.768;2024-02-26T00:59:38;8.90;99.90
16315;DHT22;8266;52.150;4.768;2024-02-26T01:02:05;8.90;99.90
16315;DHT22;8266;52.150;4.768;2024-02-26T01:04:32;8.90;99.90
16315;DHT22;8266;52.150;4.768;2024-02-26T01:07:03;8.90;99.90
16315;DHT22;8266;52.150;4.768;2024-02-26T01:09:31;8.90;99.90
16315;DHT22;8266;52.150;4.768;2024-02-26T01:11:58;8.90;99.90
16315;DHT22;8266;52.150;4.768;2024-02-26T01:14:25;8.90;99.90
16315;DHT22;8266;52.150;4.768;2024-02-26T01:16:53;8.90;99.90
16315;DHT22;8266;52.150;4.768;2024-02-26T01:19:21;8.90;99.90
16315;DHT22;8266;52.150;4.768;2024-02-26T01:21:48;8.90;99.90
16315;DHT22;8266;52.150;4.768;2024-02-26T01:24:15;8.90;99.90
16315;DHT22;8266;52.150;4.768;2024-02-26T01:26:42;8.90;99.90
16315;DHT22;8266;52.150;4.768;2024-02-26T01:29:09;8.90;99.90
16315;DHT22;8266;52.150;4.768;2024-02-26T01:31:36;8.90;99.90
16315;DHT22;8266;52.150;4.768;2024-02-26T01:34:04;8.90;99.90
16315;DHT22;8266;52.150;4.768;2024-02-26T01:36:31;8.90;99.90
16315;DHT22;8266;52.150;4.768;2024-02-26T01:39:00;8.90;99.90
16315;DHT22;8266;52.150;4.768;2024-02-26T01:41:29;8.90;99.90
16315;DHT22;8266;52.150;4.768;2024-02-26T01:43:56;8.90;99.90
16315;DHT22;8266;52.150;4.768;2024-02-26T01:46:23;8.90;99.90
16315;DHT22;8266;52.150;4.768;2024-02-26T01:48:50;8.90;99.90
16315;DHT22;8266;52.150;4.768;2024-02-26T01:51:19;8.90;99.90
16315;DHT22;8266;52.150;4.768;2024-02-26T01:53:46;8.90;99.90
16315;DHT22;8266;52.150;4.768;2024-02-26T01:56:15;8.90;99.90
16315;DHT22;8266;52.150;4.768;2024-02-26T01:58:44;8.80;99.90
16315;DHT22;8266;52.150;4.768;2024-02-26T02:01:11;8.80;99.90
16315;DHT22;8266;52.150;4.768;2024-02-26T02:03:39;8.80;99.90
16315;DHT22;8266;52.150;4.768;2024-02-26T02:06:07;8.80;99.90
16315;DHT22;8266;52.150;4.768;2024-02-26T02:08:36;8.80;99.90
16315;DHT22;8266;52.150;4.768;2024-02-26T02:11:04;8.80;99.90
16315;DHT22;8266;52.150;4.768;2024-02-26T02:13:31;8.80;99.90
16315;DHT22;8266;52.150;4.768;2024-02-26T02:15:59;8.70;99.90
16315;DHT22;8266;52.150;4.768;2024-02-26T02:18:26;8.80;99.90
16315;DHT22;8266;52.150;4.768;2024-02-26T02:20:55;8.80;99.90
16315;DHT22;8266;52.150;4.768;2024-02-26T02:23:25;8.80;99.90
16315;DHT22;8266;52.150;4.768;2024-02-26T02:25:52;8.80;99.90
16315;DHT22;8266;52.150;4.768;2024-02-26T02:28:20;8.80;99.90
16315;DHT22;8266;52.150;4.768;2024-02-26T02:30:48;8.80;99.90
16315;DHT22;8266;52.150;4.768;2024-02-26T02:33:16;8.80;99.90
16315;DHT22;8266;52.150;4.768;2024-02-26T02:35:43;8.80;99.90
16315;DHT22;8266;52.150;4.768;2024-02-26T02:38:12;8.80;99.90
16315;DHT22;8266;52.150;4.768;2024-02-26T02:40:39;8.80;99.90
16315;DHT22;8266;52.150;4.768;2024-02-26T02:43:07;8.80;99.90
16315;DHT22;8266;52.150;4.768;2024-02-26T02:45:34;8.80;99.90
16315;DHT22;8266;52.150;4.768;2024-02-26T02:48:01;8.80;99.90
16315;DHT22;8266;52.150;4.768;2024-02-26T02:50:28;8.80;99.90
16315;DHT22;8266;52.150;4.768;2024-02-26T02:52:55;8.80;99.90
16315;DHT22;8266;52.150;4.768;2024-02-26T02:55:22;8.80;99.90
16315;DHT22;8266;52.150;4.768;2024-02-26T02:57:50;8.80;99.90
16315;DHT22;8266;52.150;4.768;2024-02-26T03:00:17;8.80;99.90
16315;DHT22;8266;52.150;4.768;2024-02-26T03:02:44;8.80;99.90
16315;DHT22;8266;52.150;4.768;2024-02-26T03:05:12;8.80;99.90
16315;DHT22;8266;52.150;4.768;2024-02-26T03:07:39;8.80;99.90
16315;DHT22;8266;52.150;4.768;2024-02-26T03:10:06;8.80;99.90
16315;DHT22;8266;52.150;4.768;2024-02-26T03:12:35;8.80;99.90
16315;DHT22;8266;52.150;4.768;2024-02-26T03:15:06;8.80;99.90
16315;DHT22;8266;52.150;4.768;2024-02-26T03:17:36;8.80;99.90
16315;DHT22;8266;52.150;4.768;2024-02-26T03:20:04;8.80;99.90
16315;DHT22;8266;52.150;4.768;2024-02-26T03:22:34;8.80;99.90
16315;DHT22;8266;52.150;4.768;2024-02-26T03:25:01;8.80;99.90
16315;DHT22;8266;52.150;4.768;2024-02-26T03:27:28;8.80;99.90
16315;DHT22;8266;52.150;4.768;2024-02-26T03:29:56;8.70;99.90
16315;DHT22;8266;52.150;4.768;2024-02-26T03:32:23;8.80;99.90
16315;DHT22;8266;52.150;4.768;2024-02-26T03:34:50;8.80;99.90
16315;DHT22;8266;52.150;4.768;2024-02-26T03:37:19;8.80;99.90
16315;DHT22;8266;52.150;4.768;2024-02-26T03:39:46;8.80;99.90
16315;DHT22;8266;52.150;4.768;2024-02-26T03:42:13;8.80;99.90
16315;DHT22;8266;52.150;4.768;2024-02-26T03:44:42;8.80;99.90
16315;DHT22;8266;52.150;4.768;2024-02-26T03:47:10;8.70;99.90
16315;DHT22;8266;52.150;4.768;2024-02-26T03:49:37;8.70;99.90
16315;DHT22;8266;52.150;4.768;2024-02-26T03:52:05;8.70;99.90
16315;DHT22;8266;52.150;4.768;2024-02-26T03:54:32;8.70;99.90
16315;DHT22;8266;52.150;4.768;2024-02-26T03:56:59;8.70;99.90
16315;DHT22;8266;52.150;4.768;2024-02-26T03:59:29;8.70;99.90
16315;DHT22;8266;52.150;4.768;2024-02-26T04:01:56;8.70;99.90
16315;DHT22;8266;52.150;4.768;2024-02-26T04:04:24;8.70;99.90
16315;DHT22;8266;52.150;4.768;2024-02-26T04:06:51;8.70;99.90
16315;DHT22;8266;52.150;4.768;2024-02-26T04:09:18;8.70;99.90
16315;DHT22;8266;52.150;4.768;2024-02-26T04:11:45;8.70;99.90
16315;DHT22;8266;52.150;4.768;2024-02-26T04:14:14;8.70;99.90
16315;DHT22;8266;52.150;4.768;2024-02-26T04:16:41;8.70;99.90
16315;DHT22;8266;52.150;4.768;2024-02-26T04:19:07;8.80;99.90
16315;DHT22;8266;52.150;4.768;2024-02-26T04:21:36;8.80;99.90
16315;DHT22;8266;52.150;4.768;2024-02-26T04:24:04;8.70;99.90
16315;DHT22;8266;52.150;4.768;2024-02-26T04:26:31;8.80;99.90
16315;DHT22;8266;52.150;4.768;2024-02-26T04:28:58;8.80;99.90
16315;DHT22;8266;52.150;4.768;2024-02-26T04:31:25;8.80;99.90
16315;DHT22;8266;52.150;4.768;2024-02-26T04:33:52;8.80;99.90
16315;DHT22;8266;52.150;4.768;2024-02-26T04:36:19;8.70;99.90
16315;DHT22;8266;52.150;4.768;2024-02-26T04:38:48;8.70;99.90
16315;DHT22;8266;52.150;4.768;2024-02-26T04:41:15;8.70;99.90
16315;DHT22;8266;52.150;4.768;2024-02-26T04:43:42;8.70;99.90
16315;DHT22;8266;52.150;4.768;2024-02-26T04:46:09;8.70;99.90
16315;DHT22;8266;52.150;4.768;2024-02-26T04:48:36;8.70;99.90
16315;DHT22;8266;52.150;4.768;2024-02-26T04:51:04;8.60;99.90
16315;DHT22;8266;52.150;4.768;2024-02-26T04:53:31;8.70;99.90
16315;DHT22;8266;52.150;4.768;2024-02-26T04:56:00;8.60;99.90
16315;DHT22;8266;52.150;4.768;2024-02-26T04:58:27;8.60;99.90
16315;DHT22;8266;52.150;4.768;2024-02-26T05:00:55;8.60;99.90
16315;DHT22;8266;52.150;4.768;2024-02-26T05:03:22;8.60;99.90
16315;DHT22;8266;52.150;4.768;2024-02-26T05:05:49;8.60;99.90
16315;DHT22;8266;52.150;4.768;2024-02-26T05:08:16;8.60;99.90
16315;DHT22;8266;52.150;4.768;2024-02-26T05:10:45;8.60;99.90
16315;DHT22;8266;52.150;4.768;2024-02-26T05:13:14;8.60;99.90
16315;DHT22;8266;52.150;4.768;2024-02-26T05:15:43;8.50;99.90
16315;DHT22;8266;52.150;4.768;2024-02-26T05:18:12;8.50;99.90
16315;DHT22;8266;52.150;4.768;2024-02-26T05:20:39;8.50;99.90
16315;DHT22;8266;52.150;4.768;2024-02-26T05:23:06;8.50;99.90
16315;DHT22;8266;52.150;4.768;2024-02-26T05:25:34;8.50;99.90
16315;DHT22;8266;52.150;4.768;2024-02-26T05:28:01;8.50;99.90
16315;DHT22;8266;52.150;4.768;2024-02-26T05:30:29;8.50;99.90
16315;DHT22;8266;52.150;4.768;2024-02-26T05:32:56;8.50;99.90
16315;DHT22;8266;52.150;4.768;2024-02-26T05:35:23;8.40;99.90
16315;DHT22;8266;52.150;4.768;2024-02-26T05:37:51;8.40;99.90
16315;DHT22;8266;52.150;4.768;2024-02-26T05:40:19;8.40;99.90
16315;DHT22;8266;52.150;4.768;2024-02-26T05:42:47;8.40;99.90
16315;DHT22;8266;52.150;4.768;2024-02-26T05:45:15;8.40;99.90
16315;DHT22;8266;52.150;4.768;2024-02-26T05:47:43;8.40;99.90
16315;DHT22;8266;52.150;4.768;2024-02-26T05:50:10;8.40;99.90
16315;DHT22;8266;52.150;4.768;2024-02-26T05:52:38;8.40;99.90
16315;DHT22;8266;52.150;4.768;2024-02-26T05:55:06;8.40;99.90
16315;DHT22;8266;52.150;4.768;2024-02-26T05:57:34;8.40;99.90
16315;DHT22;8266;52.150;4.768;2024-02-26T06:00:01;8.40;99.90
16315;DHT22;8266;52.150;4.768;2024-02-26T06:02:30;8.40;99.90
16315;DHT22;8266;52.150;4.768;2024-02-26T06:04:58;8.40;99.90
16315;DHT22;8266;52.150;4.768;2024-02-26T06:07:26;8.40;99.90
16315;DHT22;8266;52.150;4.768;2024-02-26T06:09:53;8.40;99.90
16315;DHT22;8266;52.150;4.768;2024-02-26T06:12:20;8.40;99.90
16315;DHT22;8266;52.150;4.768;2024-02-26T06:14:47;8.40;99.90
16315;DHT22;8266;52.150;4.768;2024-02-26T06:17:14;8.40;99.90
16315;DHT22;8266;52.150;4.768;2024-02-26T06:19:42;8.40;99.90
16315;DHT22;8266;52.150;4.768;2024-02-26T06:22:10;8.40;99.90
16315;DHT22;8266;52.150;4.768;2024-02-26T06:24:37;8.40;99.90
16315;DHT22;8266;52.150;4.768;2024-02-26T06:27:04;8.40;99.90
16315;DHT22;8266;52.150;4.768;2024-02-26T06:29:31;8.40;99.90
16315;DHT22;8266;52.150;4.768;2024-02-26T06:31:59;8.40;99.90
16315;DHT22;8266;52.150;4.768;2024-02-26T06:34:26;8.40;99.90
16315;DHT22;8266;52.150;4.768;2024-02-26T06:36:53;8.40;99.90
16315;DHT22;8266;52.150;4.768;2024-02-26T06:39:21;8.40;99.90
16315;DHT22;8266;52.150;4.768;2024-02-26T06:41:48;8.40;99.90
16315;DHT22;8266;52.150;4.768;2024-02-26T06:44:16;8.40;99.90
16315;DHT22;8266;52.150;4.768;2024-02-26T06:46:43;8.40;99.90
16315;DHT22;8266;52.150;4.768;2024-02-26T06:49:09;8.40;99.90
16315;DHT22;8266;52.150;4.768;2024-02-26T06:51:37;8.40;99.90
16315;DHT22;8266;52.150;4.768;2024-02-26T06:54:04;8.40;99.90
16315;DHT22;8266;52.150;4.768;2024-02-26T06:56:32;8.40;99.90
16315;DHT22;8266;52.150;4.768;2024-02-26T06:58:59;8.40;99.90
16315;DHT22;8266;52.150;4.768;2024-02-26T07:01:26;8.40;99.90
16315;DHT22;8266;52.150;4.768;2024-02-26T07:03:54;8.40;99.90
16315;DHT22;8266;52.150;4.768;2024-02-26T07:06:21;8.40;99.90
16315;DHT22;8266;52.150;4.768;2024-02-26T07:08:48;8.40;99.90
16315;DHT22;8266;52.150;4.768;2024-02-26T07:11:15;8.40;99.90
16315;DHT22;8266;52.150;4.768;2024-02-26T07:13:43;8.40;99.90
16315;DHT22;8266;52.150;4.768;2024-02-26T07:16:10;8.40;99.90
16315;DHT22;8266;52.150;4.768;2024-02-26T07:18:37;8.30;99.90
16315;DHT22;8266;52.150;4.768;2024-02-26T07:21:05;8.30;99.90
16315;DHT22;8266;52.150;4.768;2024-02-26T07:23:32;8.30;99.90
16315;DHT22;8266;52.150;4.768;2024-02-26T07:25:59;8.30;99.90
16315;DHT22;8266;52.150;4.768;2024-02-26T07:28:26;8.30;99.90
16315;DHT22;8266;52.150;4.768;2024-02-26T07:30:55;8.30;99.90
16315;DHT22;8266;52.150;4.768;2024-02-26T07:33:22;8.30;99.90
16315;DHT22;8266;52.150;4.768;2024-02-26T07:35:49;8.30;99.90
16315;DHT22;8266;52.150;4.768;2024-02-26T07:38:16;8.30;99.90
16315;DHT22;8266;52.150;4.768;2024-02-26T07:40:43;8.30;99.90
16315;DHT22;8266;52.150;4.768;2024-02-26T07:43:10;8.30;99.90
16315;DHT22;8266;52.150;4.768;2024-02-26T07:45:37;8.20;99.90
16315;DHT22;8266;52.150;4.768;2024-02-26T07:48:07;8.20;99.90
16315;DHT22;8266;52.150;4.768;2024-02-26T07:50:34;8.20;99.90
16315;DHT22;8266;52.150;4.768;2024-02-26T07:53:01;8.20;99.90
16315;DHT22;8266;52.150;4.768;2024-02-26T07:55:28;8.20;99.90
16315;DHT22;8266;52.150;4.768;2024-02-26T07:57:55;8.20;99.90
16315;DHT22;8266;52.150;4.768;2024-02-26T08:00:22;8.20;99.90
16315;DHT22;8266;52.150;4.768;2024-02-26T08:02:49;8.20;99.90
16315;DHT22;8266;52.150;4.768;2024-02-26T08:05:18;8.20;99.90
16315;DHT22;8266;52.150;4.768;2024-02-26T08:07:45;8.20;99.90
16315;DHT22;8266;52.150;4.768;2024-02-26T08:10:12;8.20;99.90
16315;DHT22;8266;52.150;4.768;2024-02-26T08:12:39;8.20;99.90
16315;DHT22;8266;52.150;4.768;2024-02-26T08:15:07;8.20;99.90
16315;DHT22;8266;52.150;4.768;2024-02-26T08:17:34;8.20;99.90
16315;DHT22;8266;52.150;4.768;2024-02-26T08:20:02;8.20;99.90
16315;DHT22;8266;52.150;4.768;2024-02-26T08:22:30;8.20;99.90
16315;DHT22;8266;52.150;4.768;2024-02-26T08:24:59;8.30;99.90
16315;DHT22;8266;52.150;4.768;2024-02-26T08:27:28;8.30;99.90
16315;DHT22;8266;52.150;4.768;2024-02-26T08:29:55;8.30;99.90
16315;DHT22;8266;52.150;4.768;2024-02-26T08:32:22;8.30;99.90
16315;DHT22;8266;52.150;4.768;2024-02-26T08:34:49;8.30;99.90
16315;DHT22;8266;52.150;4.768;2024-02-26T08:37:16;8.30;99.90
16315;DHT22;8266;52.150;4.768;2024-02-26T08:39:45;8.40;99.90
16315;DHT22;8266;52.150;4.768;2024-02-26T08:42:12;8.40;99.90
16315;DHT22;8266;52.150;4.768;2024-02-26T08:44:39;8.40;99.90
16315;DHT22;8266;52.150;4.768;2024-02-26T08:47:06;8.40;99.90
16315;DHT22;8266;52.150;4.768;2024-02-26T08:49:34;8.40;99.90
16315;DHT22;8266;52.150;4.768;2024-02-26T08:52:01;8.50;99.90
16315;DHT22;8266;52.150;4.768;2024-02-26T08:54:28;8.50;99.90
16315;DHT22;8266;52.150;4.768;2024-02-26T08:56:56;8.50;99.90
16315;DHT22;8266;52.150;4.768;2024-02-26T08:59:23;8.50;99.90
16315;DHT22;8266;52.150;4.768;2024-02-26T09:01:50;8.50;99.90
16315;DHT22;8266;52.150;4.768;2024-02-26T09:04:17;8.60;99.90
16315;DHT22;8266;52.150;4.768;2024-02-26T09:06:44;8.60;99.90
16315;DHT22;8266;52.150;4.768;2024-02-26T09:09:11;8.60;99.90
16315;DHT22;8266;52.150;4.768;2024-02-26T09:11:38;8.60;99.90
16315;DHT22;8266;52.150;4.768;2024-02-26T09:14:07;8.60;99.90
16315;DHT22;8266;52.150;4.768;2024-02-26T09:16:34;8.70;99.90
16315;DHT22;8266;52.150;4.768;2024-02-26T09:19:01;8.70;99.90
16315;DHT22;8266;52.150;4.768;2024-02-26T09:21:29;8.70;99.90
16315;DHT22;8266;52.150;4.768;2024-02-26T09:23:56;8.70;99.90
16315;DHT22;8266;52.150;4.768;2024-02-26T09:26:23;8.80;99.90
16315;DHT22;8266;52.150;4.768;2024-02-26T09:28:50;8.80;99.90
16315;DHT22;8266;52.150;4.768;2024-02-26T09:31:19;8.80;99.90
16315;DHT22;8266;52.150;4.768;2024-02-26T09:33:46;8.80;99.90
16315;DHT22;8266;52.150;4.768;2024-02-26T09:36:13;8.80;99.90
16315;DHT22;8266;52.150;4.768;2024-02-26T09:38:40;8.80;99.90
16315;DHT22;8266;52.150;4.768;2024-02-26T09:41:14;8.80;99.90
16315;DHT22;8266;52.150;4.768;2024-02-26T09:43:44;8.80;99.90
16315;DHT22;8266;52.150;4.768;2024-02-26T09:46:11;8.80;99.90
16315;DHT22;8266;52.150;4.768;2024-02-26T09:48:42;8.80;99.90
16315;DHT22;8266;52.150;4.768;2024-02-26T09:51:11;8.90;99.90
16315;DHT22;8266;52.150;4.768;2024-02-26T09:53:40;8.90;99.90
16315;DHT22;8266;52.150;4.768;2024-02-26T09:56:11;8.80;99.90
16315;DHT22;8266;52.150;4.768;2024-02-26T09:58:39;8.90;99.90
16315;DHT22;8266;52.150;4.768;2024-02-26T10:01:11;8.90;99.90
16315;DHT22;8266;52.150;4.768;2024-02-26T10:03:41;8.90;99.90
16315;DHT22;8266;52.150;4.768;2024-02-26T10:06:10;8.90;99.90
16315;DHT22;8266;52.150;4.768;2024-02-26T10:08:37;8.90;99.90
16315;DHT22;8266;52.150;4.768;2024-02-26T10:11:05;9.00;99.90
16315;DHT22;8266;52.150;4.768;2024-02-26T10:13:36;9.00;99.90
16315;DHT22;8266;52.150;4.768;2024-02-26T10:16:04;9.10;99.90
16315;DHT22;8266;52.150;4.768;2024-02-26T10:18:47;9.00;99.90
16315;DHT22;8266;52.150;4.768;2024-02-26T10:21:16;9.10;99.90
16315;DHT22;8266;52.150;4.768;2024-02-26T10:23:43;9.10;99.90
16315;DHT22;8266;52.150;4.768;2024-02-26T10:26:12;9.10;99.90
16315;DHT22;8266;52.150;4.768;2024-02-26T10:28:39;9.10;99.90
16315;DHT22;8266;52.150;4.768;2024-02-26T10:31:07;9.20;99.90
16315;DHT22;8266;52.150;4.768;2024-02-26T10:33:35;9.10;99.90
16315;DHT22;8266;52.150;4.768;2024-02-26T10:36:05;9.10;99.90
16315;DHT22;8266;52.150;4.768;2024-02-26T10:38:32;9.00;99.90
16315;DHT22;8266;52.150;4.768;2024-02-26T10:40:59;9.00;99.90
16315;DHT22;8266;52.150;4.768;2024-02-26T10:43:26;8.90;99.90
16315;DHT22;8266;52.150;4.768;2024-02-26T10:45:55;8.90;99.90
16315;DHT22;8266;52.150;4.768;2024-02-26T10:48:22;8.80;99.90
16315;DHT22;8266;52.150;4.768;2024-02-26T10:50:49;8.80;99.90
16315;DHT22;8266;52.150;4.768;2024-02-26T10:53:20;8.70;99.90
16315;DHT22;8266;52.150;4.768;2024-02-26T10:55:53;8.70;99.90
16315;DHT22;8266;52.150;4.768;2024-02-26T10:58:22;8.60;99.90
16315;DHT22;8266;52.150;4.768;2024-02-26T11:00:51;8.50;99.90
16315;DHT22;8266;52.150;4.768;2024-02-26T11:03:19;8.50;99.90
16315;DHT22;8266;52.150;4.768;2024-02-26T11:05:48;8.50;99.90
16315;DHT22;8266;52.150;4.768;2024-02-26T11:08:17;8.40;99.90
16315;DHT22;8266;52.150;4.768;2024-02-26T11:10:47;8.40;99.90
16315;DHT22;8266;52.150;4.768;2024-02-26T11:13:15;8.40;99.90
16315;DHT22;8266;52.150;4.768;2024-02-26T11:15:46;8.30;99.90
16315;DHT22;8266;52.150;4.768;2024-02-26T11:18:15;8.30;99.90
16315;DHT22;8266;52.150;4.768;2024-02-26T11:20:42;8.30;99.90
16315;DHT22;8266;52.150;4.768;2024-02-26T11:23:10;8.30;99.90
16315;DHT22;8266;52.150;4.768;2024-02-26T11:25:38;8.30;99.90
16315;DHT22;8266;52.150;4.768;2024-02-26T11:28:10;8.30;99.90
16315;DHT22;8266;52.150;4.768;2024-02-26T11:30:41;8.30;99.90
16315;DHT22;8266;52.150;4.768;2024-02-26T11:33:10;8.30;99.90
16315;DHT22;8266;52.150;4.768;2024-02-26T11:35:38;8.30;99.90
16315;DHT22;8266;52.150;4.768;2024-02-26T11:38:06;8.30;99.90
16315;DHT22;8266;52.150;4.768;2024-02-26T11:40:36;8.30;99.90
16315;DHT22;8266;52.150;4.768;2024-02-26T11:43:06;8.30;99.90
16315;DHT22;8266;52.150;4.768;2024-02-26T11:45:51;8.30;99.90
16315;DHT22;8266;52.150;4.768;2024-02-26T11:48:21;8.30;99.90
16315;DHT22;8266;52.150;4.768;2024-02-26T11:50:49;8.30;99.90
16315;DHT22;8266;52.150;4.768;2024-02-26T11:53:24;8.30;99.90
16315;DHT22;8266;52.150;4.768;2024-02-26T11:56:14;8.30;99.90
16315;DHT22;8266;52.150;4.768;2024-02-26T11:58:48;8.30;99.90
16315;DHT22;8266;52.150;4.768;2024-02-26T12:01:38;8.30;99.90
16315;DHT22;8266;52.150;4.768;2024-02-26T12:04:07;8.40;99.90
16315;DHT22;8266;52.150;4.768;2024-02-26T12:06:50;8.30;99.90
16315;DHT22;8266;52.150;4.768;2024-02-26T12:09:34;8.40;99.90
16315;DHT22;8266;52.150;4.768;2024-02-26T12:12:02;8.40;99.90
16315;DHT22;8266;52.150;4.768;2024-02-26T12:14:33;8.40;99.90
16315;DHT22;8266;52.150;4.768;2024-02-26T12:17:01;8.40;99.90
16315;DHT22;8266;52.150;4.768;2024-02-26T12:19:32;8.40;99.90
16315;DHT22;8266;52.150;4.768;2024-02-26T12:22:00;8.40;99.90
16315;DHT22;8266;52.150;4.768;2024-02-26T12:24:28;8.40;99.90
16315;DHT22;8266;52.150;4.768;2024-02-26T12:26:55;8.40;99.90
16315;DHT22;8266;52.150;4.768;2024-02-26T12:29:23;8.50;99.90
16315;DHT22;8266;52.150;4.768;2024-02-26T12:31:52;8.50;99.90
16315;DHT22;8266;52.150;4.768;2024-02-26T12:34:19;8.50;99.90
16315;DHT22;8266;52.150;4.768;2024-02-26T12:36:46;8.50;99.90
16315;DHT22;8266;52.150;4.768;2024-02-26T12:39:13;8.50;99.90
16315;DHT22;8266;52.150;4.768;2024-02-26T12:41:41;8.50;99.90
16315;DHT22;8266;52.150;4.768;2024-02-26T12:44:15;8.50;99.90
16315;DHT22;8266;52.150;4.768;2024-02-26T12:46:42;8.60;99.90
16315;DHT22;8266;52.150;4.768;2024-02-26T12:49:14;8.60;99.90
16315;DHT22;8266;52.150;4.768;2024-02-26T12:51:42;8.60;99.90
16315;DHT22;8266;52.150;4.768;2024-02-26T12:54:10;8.70;99.90
16315;DHT22;8266;52.150;4.768;2024-02-26T12:56:37;8.70;99.90
16315;DHT22;8266;52.150;4.768;2024-02-26T12:59:04;8.70;99.90
16315;DHT22;8266;52.150;4.768;2024-02-26T13:01:32;8.80;99.90
16315;DHT22;8266;52.150;4.768;2024-02-26T13:03:59;8.80;99.90
16315;DHT22;8266;52.150;4.768;2024-02-26T13:06:34;8.80;99.90
16315;DHT22;8266;52.150;4.768;2024-02-26T13:09:01;8.90;99.90
16315;DHT22;8266;52.150;4.768;2024-02-26T13:11:29;8.90;99.90
16315;DHT22;8266;52.150;4.768;2024-02-26T13:13:57;8.90;99.90
16315;DHT22;8266;52.150;4.768;2024-02-26T13:16:25;9.00;99.90
16315;DHT22;8266;52.150;4.768;2024-02-26T13:18:52;9.00;99.90
16315;DHT22;8266;52.150;4.768;2024-02-26T13:21:19;9.10;99.90
16315;DHT22;8266;52.150;4.768;2024-02-26T13:23:53;9.10;99.90
16315;DHT22;8266;52.150;4.768;2024-02-26T13:26:22;9.10;99.90
16315;DHT22;8266;52.150;4.768;2024-02-26T13:28:59;9.20;99.90
16315;DHT22;8266;52.150;4.768;2024-02-26T13:31:26;9.20;99.90
16315;DHT22;8266;52.150;4.768;2024-02-26T13:33:53;9.20;99.90
16315;DHT22;8266;52.150;4.768;2024-02-26T13:36:21;9.30;99.90
16315;DHT22;8266;52.150;4.768;2024-02-26T13:38:53;9.30;99.90
16315;DHT22;8266;52.150;4.768;2024-02-26T13:41:20;9.40;99.90
16315;DHT22;8266;52.150;4.768;2024-02-26T13:43:47;9.40;99.90
16315;DHT22;8266;52.150;4.768;2024-02-26T13:46:15;9.50;99.90
16315;DHT22;8266;52.150;4.768;2024-02-26T13:48:42;9.50;99.90
16315;DHT22;8266;52.150;4.768;2024-02-26T13:51:09;9.60;99.90
16315;DHT22;8266;52.150;4.768;2024-02-26T13:53:36;9.60;99.90
16315;DHT22;8266;52.150;4.768;2024-02-26T13:56:05;9.60;99.90
16315;DHT22;8266;52.150;4.768;2024-02-26T13:58:32;9.60;99.90
16315;DHT22;8266;52.150;4.768;2024-02-26T14:00:59;9.70;99.90
16315;DHT22;8266;52.150;4.768;2024-02-26T14:03:29;9.70;99.90
16315;DHT22;8266;52.150;4.768;2024-02-26T14:05:56;9.70;99.90
16315;DHT22;8266;52.150;4.768;2024-02-26T14:08:24;9.80;99.90
16315;DHT22;8266;52.150;4.768;2024-02-26T14:10:51;9.80;99.90
16315;DHT22;8266;52.150;4.768;2024-02-26T14:13:19;9.80;99.90
16315;DHT22;8266;52.150;4.768;2024-02-26T14:15:46;9.90;99.90
16315;DHT22;8266;52.150;4.768;2024-02-26T14:18:13;9.90;99.90
16315;DHT22;8266;52.150;4.768;2024-02-26T14:20:40;9.90;99.90
16315;DHT22;8266;52.150;4.768;2024-02-26T14:23:08;9.90;99.90
16315;DHT22;8266;52.150;4.768;2024-02-26T14:25:35;9.90;99.90
16315;DHT22;8266;52.150;4.768;2024-02-26T14:28:02;9.90;99.90
16315;DHT22;8266;52.150;4.768;2024-02-26T14:30:31;9.90;99.90
16315;DHT22;8266;52.150;4.768;2024-02-26T14:32:58;10.00;99.90
16315;DHT22;8266;52.150;4.768;2024-02-26T14:35:25;10.00;99.90
16315;DHT22;8266;52.150;4.768;2024-02-26T14:37:53;10.00;99.90
16315;DHT22;8266;52.150;4.768;2024-02-26T14:40:20;10.00;99.90
16315;DHT22;8266;52.150;4.768;2024-02-26T14:42:47;10.00;99.90
16315;DHT22;8266;52.150;4.768;2024-02-26T14:45:15;10.00;99.90
16315;DHT22;8266;52.150;4.768;2024-02-26T14:47:43;10.00;99.90
16315;DHT22;8266;52.150;4.768;2024-02-26T14:50:10;10.10;99.90
16315;DHT22;8266;52.150;4.768;2024-02-26T14:52:38;10.10;99.90
16315;DHT22;8266;52.150;4.768;2024-02-26T14:55:05;10.10;99.90
16315;DHT22;8266;52.150;4.768;2024-02-26T14:57:32;10.10;99.90
16315;DHT22;8266;52.150;4.768;2024-02-26T15:00:00;10.10;99.90
16315;DHT22;8266;52.150;4.768;2024-02-26T15:02:31;10.10;99.90
16315;DHT22;8266;52.150;4.768;2024-02-26T15:04:59;10.10;99.90
16315;DHT22;8266;52.150;4.768;2024-02-26T15:07:26;10.10;99.90
16315;DHT22;8266;52.150;4.768;2024-02-26T15:09:53;10.10;99.90
16315;DHT22;8266;52.150;4.768;2024-02-26T15:12:23;10.10;99.90
16315;DHT22;8266;52.150;4.768;2024-02-26T15:14:50;10.00;99.90
16315;DHT22;8266;52.150;4.768;2024-02-26T15:17:17;10.00;99.90
16315;DHT22;8266;52.150;4.768;2024-02-26T15:19:45;10.00;99.90
16315;DHT22;8266;52.150;4.768;2024-02-26T15:22:14;9.90;99.90
16315;DHT22;8266;52.150;4.768;2024-02-26T15:24:43;9.90;99.90
16315;DHT22;8266;52.150;4.768;2024-02-26T15:27:12;9.90;99.90
16315;DHT22;8266;52.150;4.768;2024-02-26T15:29:39;9.90;99.90
16315;DHT22;8266;52.150;4.768;2024-02-26T15:32:06;9.90;99.90
16315;DHT22;8266;52.150;4.768;2024-02-26T15:34:36;9.90;99.90
16315;DHT22;8266;52.150;4.768;2024-02-26T15:37:04;9.80;99.90
16315;DHT22;8266;52.150;4.768;2024-02-26T15:39:32;9.80;99.90
16315;DHT22;8266;52.150;4.768;2024-02-26T15:42:00;9.80;99.90
16315;DHT22;8266;52.150;4.768;2024-02-26T15:44:28;9.80;99.90
16315;DHT22;8266;52.150;4.768;2024-02-26T15:46:55;9.80;99.90
16315;DHT22;8266;52.150;4.768;2024-02-26T15:49:22;9.80;99.90
16315;DHT22;8266;52.150;4.768;2024-02-26T15:51:49;9.70;99.90
16315;DHT22;8266;52.150;4.768;2024-02-26T15:54:16;9.70;99.90
16315;DHT22;8266;52.150;4.768;2024-02-26T15:56:45;9.70;99.90
16315;DHT22;8266;52.150;4.768;2024-02-26T15:59:12;9.70;99.90
16315;DHT22;8266;52.150;4.768;2024-02-26T16:01:39;9.70;99.90
16315;DHT22;8266;52.150;4.768;2024-02-26T16:04:07;9.60;99.90